Time;durP1;ratioP1;P1;durP2;ratioP2;P2;SDS_P1;SDS_P2;PMS_P1;PMS_P2;Temp;Humidity;BMP_temperature;BMP_pressure;BME280_temperature;BME280_humidity;BME280_pressure;Samples;Min_cycle;Max_cycle;Signal;HPM_P1;HPM_P2
2021/12/24 00:00:22;;;;;;;13.55;11.00;;;;;;;6.47;89.79;99270.25;10243608;28;20432;-60
2021/12/24 00:05:24;;;;;;;13.38;11.05;;;;;;;6.46;91.55;99271.22;10264753;28;20046;-60
2021/12/24 00:10:26;;;;;;;13.75;10.25;;;;;;;6.47;91.63;99283.47;10261295;28;20047;-60
2021/12/24 00:36:17;;;;;;;13.65;11.38;;;;;;;6.49;93.28;99255.13;10251795;28;20064;-61
2021/12/24 00:41:19;;;;;;;15.32;11.73;;;;;;;6.45;92.99;99245.75;10264877;28;20320;-62
2021/12/24 00:46:20;;;;;;;12.35;11.15;;;;;;;6.44;92.69;99246.69;10264662;28;20165;-62
2021/12/24 00:51:32;;;;;;;13.45;11.13;;;;;;;6.47;92.81;99241.16;10263550;28;20047;-61
2021/12/24 00:56:34;;;;;;;14.00;12.60;;;;;;;6.41;92.08;99225.78;10261271;28;20061;-60
2021/12/24 01:01:35;;;;;;;12.95;11.00;;;;;;;6.54;91.85;99239.72;10277018;23;20043;-64
2021/12/24 01:06:37;;;;;;;11.80;10.25;;;;;;;6.51;92.13;99239.97;10247421;28;20046;-64
2021/12/24 01:11:38;;;;;;;15.13;12.10;;;;;;;6.57;91.41;99231.53;10261885;28;20047;-65
2021/12/24 01:16:51;;;;;;;11.80;10.10;;;;;;;6.55;91.75;99238.75;10241232;28;20050;-62
2021/12/24 01:38:08;;;;;;;12.75;9.90;;;;;;;6.79;89.95;99256.28;10263403;28;20126;-63
2021/12/24 01:43:10;;;;;;;17.10;10.52;;;;;;;6.88;89.84;99250.25;10274820;28;20048;-62
2021/12/24 01:48:11;;;;;;;11.55;9.73;;;;;;;6.89;89.24;99246.59;10272192;28;20130;-62
2021/12/24 01:53:15;;;;;;;14.63;10.40;;;;;;;6.91;89.04;99257.94;10261885;28;20449;-62
2021/12/24 01:58:24;;;;;;;12.77;8.77;;;;;;;6.98;88.84;99260.91;10236814;28;20133;-62
2021/12/24 02:03:26;;;;;;;11.02;9.82;;;;;;;7.04;88.25;99248.03;10261533;28;20043;-63
2021/12/24 02:08:28;;;;;;;12.13;10.07;;;;;;;7.01;88.64;99242.13;10262321;28;20126;-64
2021/12/24 02:13:30;;;;;;;11.43;9.77;;;;;;;6.99;88.76;99241.41;10262093;28;20050;-63
2021/12/24 02:28:17;;;;;;;13.40;10.60;;;;;;;7.05;88.75;99249.69;10266598;28;20137;-63
2021/12/24 02:29:27;;;;;;;11.68;10.02;;;;;;;7.01;88.97;99226.25;10264195;28;20046;-63
2021/12/24 02:34:28;;;;;;;13.55;9.60;;;;;;;7.02;88.54;99209.41;10263019;28;20578;-63
2021/12/24 02:39:30;;;;;;;10.68;9.57;;;;;;;7.06;89.08;99205.56;10261712;28;20082;-64
2021/12/24 02:44:31;;;;;;;11.38;9.63;;;;;;;7.01;88.79;99191.84;10234058;28;20467;-63
2021/12/24 02:54:49;;;;;;;12.30;8.85;;;;;;;7.11;88.32;99191.94;10260989;28;20078;-64
2021/12/24 02:59:59;;;;;;;11.25;10.05;;;;;;;7.13;88.16;99195.28;10258863;28;20039;-63
2021/12/24 03:05:01;;;;;;;10.93;8.90;;;;;;;7.16;87.92;99197.69;10237373;28;20050;-63
2021/12/24 03:10:05;;;;;;;11.38;8.60;;;;;;;7.22;87.68;99194.53;10260715;28;20078;-63
2021/12/24 03:15:07;;;;;;;11.20;9.45;;;;;;;7.22;87.41;99190.09;10249887;28;20642;-62
2021/12/24 03:20:10;;;;;;;10.30;9.15;;;;;;;7.23;87.36;99185.63;10259495;28;20590;-63
2021/12/24 03:25:11;;;;;;;11.00;9.90;;;;;;;7.28;87.46;99187.88;10237486;28;20444;-62
2021/12/24 03:30:13;;;;;;;10.77;9.20;;;;;;;7.31;87.37;99187.63;10265612;28;20137;-62
2021/12/24 03:35:14;;;;;;;10.23;9.02;;;;;;;7.26;87.65;99174.78;10265814;28;20063;-62
2021/12/24 03:40:16;;;;;;;11.00;9.20;;;;;;;7.25;87.53;99186.31;10268328;28;20133;-62
2021/12/24 03:45:29;;;;;;;11.73;9.75;;;;;;;7.25;87.62;99183.69;10267067;28;20054;-63
2021/12/24 03:50:47;;;;;;;9.45;8.55;;;;;;;7.27;87.71;99176.47;10246203;28;20509;-63
2021/12/24 03:55:49;;;;;;;9.68;8.55;;;;;;;7.25;88.03;99168.66;10248339;28;20049;-63
2021/12/24 04:00:51;;;;;;;10.68;9.38;;;;;;;7.25;87.86;99173.09;10264790;28;20053;-63
2021/12/24 04:05:53;;;;;;;13.48;9.05;;;;;;;7.22;88.18;99179.50;10265178;28;20479;-63
2021/12/24 04:10:54;;;;;;;11.25;8.52;;;;;;;7.19;88.55;99157.72;10269928;28;20137;-63
2021/12/24 04:15:55;;;;;;;10.02;8.35;;;;;;;7.21;88.79;99163.75;10237319;28;20138;-63
2021/12/24 04:26:18;;;;;;;9.85;7.85;;;;;;;7.26;88.44;99148.31;10269319;28;20051;-64
2021/12/24 04:31:26;;;;;;;8.73;7.55;;;;;;;7.40;88.78;99169.16;10241065;28;20050;-63
2021/12/24 05:03:03;;;;;;;8.32;6.55;;;;;;;7.64;89.39;99168.06;10263156;28;20050;-63
2021/12/24 05:13:12;;;;;;;8.15;6.53;;;;;;;7.74;89.00;99168.91;10270639;28;20057;-64
2021/12/24 05:18:29;;;;;;;6.50;5.85;;;;;;;7.77;88.76;99166.00;10263286;28;20050;-64
2021/12/24 05:23:30;;;;;;;6.65;5.80;;;;;;;7.86;88.78;99171.50;10262150;28;20050;-64
2021/12/24 05:28:32;;;;;;;6.60;6.00;;;;;;;7.84;88.81;99160.22;10263010;28;20425;-63
2021/12/24 05:33:33;;;;;;;6.53;5.90;;;;;;;7.91;89.10;99170.13;10263590;28;20050;-64
2021/12/24 05:38:34;;;;;;;7.97;6.65;;;;;;;7.99;89.26;99169.47;10262484;28;20046;-63
2021/12/24 05:43:36;;;;;;;7.00;5.90;;;;;;;7.99;89.17;99177.41;10262483;28;20053;-64
2021/12/24 05:48:38;;;;;;;7.20;6.43;;;;;;;8.00;89.43;99179.09;10241819;28;20061;-64
2021/12/24 05:53:39;;;;;;;6.38;5.50;;;;;;;8.02;89.62;99182.44;10263919;28;20577;-64
2021/12/24 05:58:42;;;;;;;7.22;6.22;;;;;;;7.95;89.74;99160.94;10261375;28;20057;-64
2021/12/24 06:03:43;;;;;;;7.40;6.68;;;;;;;7.99;90.24;99156.22;10260794;28;20150;-62
2021/12/24 06:08:44;;;;;;;8.18;7.35;;;;;;;7.99;90.10;99165.97;10235637;28;20051;-64
2021/12/24 06:13:48;;;;;;;8.60;6.82;;;;;;;7.98;90.31;99159.81;10238624;28;20064;-63
2021/12/24 06:18:49;;;;;;;9.00;6.85;;;;;;;7.95;90.66;99146.84;10237246;28;20063;-63
2021/12/24 06:23:51;;;;;;;8.55;6.72;;;;;;;8.04;90.32;99159.28;10244143;28;20058;-62
2021/12/24 06:28:52;;;;;;;7.72;5.93;;;;;;;8.05;89.79;99162.81;10243502;28;20050;-62
2021/12/24 06:33:54;;;;;;;8.45;6.82;;;;;;;8.03;89.92;99162.06;10229474;28;20149;-62
2021/12/24 06:38:55;;;;;;;7.47;6.60;;;;;;;8.03;90.18;99152.34;10242374;28;20055;-62
2021/12/24 06:43:57;;;;;;;6.90;6.20;;;;;;;8.00;90.33;99163.19;10222962;28;20693;-61
2021/12/24 06:48:58;;;;;;;10.70;7.60;;;;;;;7.94;90.93;99169.00;10243568;28;20061;-61
2021/12/24 06:54:00;;;;;;;8.35;7.22;;;;;;;7.94;91.28;99171.66;10243240;28;20057;-62
2021/12/24 06:59:01;;;;;;;10.40;8.07;;;;;;;7.93;91.33;99175.31;10245025;28;20053;-63
2021/12/24 07:04:03;;;;;;;9.05;6.88;;;;;;;7.93;90.73;99178.78;10247620;28;20058;-62
2021/12/24 07:09:05;;;;;;;7.63;6.80;;;;;;;7.95;90.36;99173.34;10251555;28;20283;-62
2021/12/24 07:14:07;;;;;;;9.93;7.40;;;;;;;8.01;90.11;99188.72;10246806;28;20050;-62
2021/12/24 07:19:08;;;;;;;7.22;6.38;;;;;;;8.07;89.62;99193.47;10244719;28;20058;-67
2021/12/24 07:24:10;;;;;;;8.15;6.07;;;;;;;8.09;88.95;99212.75;10248051;28;20150;-63
2021/12/24 07:29:12;;;;;;;7.95;6.40;;;;;;;8.09;88.58;99215.41;10250573;28;20058;-64
2021/12/24 07:34:13;;;;;;;6.60;5.80;;;;;;;8.14;88.27;99212.34;10248780;28;20055;-64
2021/12/24 07:39:15;;;;;;;9.73;6.80;;;;;;;8.14;88.37;99212.34;10234748;28;20046;-63
2021/12/24 07:44:18;;;;;;;9.80;7.25;;;;;;;8.16;88.31;99205.09;10250659;28;20757;-63
2021/12/24 07:54:24;;;;;;;;;;;;;;;8.19;87.88;99188.91;10250882;28;20043;-61
2021/12/24 07:59:26;;;;;;;13.27;9.23;;;;;;;8.08;87.96;99192.50;10232053;28;20040;-63
2021/12/24 08:04:27;;;;;;;14.82;9.07;;;;;;;8.12;87.95;99199.22;10251030;28;20050;-64
2021/12/24 08:09:29;;;;;;;11.82;8.27;;;;;;;8.12;87.52;99188.63;10244104;28;20058;-62
2021/12/24 08:14:30;;;;;;;10.98;8.63;;;;;;;8.20;86.89;99187.13;10246149;28;20055;-63
2021/12/24 08:19:32;;;;;;;11.88;7.85;;;;;;;8.22;86.54;99177.22;10248127;28;20059;-62
2021/12/24 08:24:33;;;;;;;8.55;7.25;;;;;;;8.21;86.18;99175.53;10250344;28;20051;-64
2021/12/24 08:29:35;;;;;;;12.63;8.50;;;;;;;8.25;85.99;99171.63;10229302;28;20050;-63
2021/12/24 08:34:38;;;;;;;10.80;8.75;;;;;;;8.24;85.71;99154.03;10246502;28;20057;-62
2021/12/24 08:39:40;;;;;;;11.35;8.48;;;;;;;8.28;85.64;99150.16;10248037;28;20046;-62
2021/12/24 08:44:42;;;;;;;10.55;8.57;;;;;;;8.34;85.84;99160.22;10234436;28;20050;-62
2021/12/24 08:49:44;;;;;;;8.65;6.93;;;;;;;8.35;85.46;99161.91;10276997;28;20062;-64
2021/12/24 08:54:45;;;;;;;11.00;7.15;;;;;;;8.39;84.93;99178.38;10256606;28;20054;-65
2021/12/24 08:59:47;;;;;;;8.73;7.80;;;;;;;8.45;84.34;99177.84;10249616;28;20047;-64
2021/12/24 09:04:50;;;;;;;9.40;7.65;;;;;;;8.53;83.61;99163.91;10248811;28;20633;-64
2021/12/24 09:09:51;;;;;;;6.90;6.05;;;;;;;8.62;82.65;99169.25;10250503;28;20046;-64
2021/12/24 09:14:53;;;;;;;6.97;6.07;;;;;;;8.71;81.81;99167.59;10249411;28;20065;-63
2021/12/24 09:19:56;;;;;;;6.30;5.00;;;;;;;8.76;80.99;99160.03;10248806;28;20258;-64
2021/12/24 09:24:58;;;;;;;6.47;5.47;;;;;;;8.81;80.64;99139.25;10244585;28;20611;-65
2021/12/24 09:29:59;;;;;;;8.48;5.93;;;;;;;8.93;80.26;99144.41;10241851;28;20061;-64
2021/12/24 09:35:01;;;;;;;6.75;5.13;;;;;;;8.94;79.40;99140.78;10245298;28;20505;-64
2021/12/24 09:40:04;;;;;;;7.30;5.28;;;;;;;9.01;79.43;99148.03;10245189;28;20109;-64
2021/12/24 09:45:07;;;;;;;6.55;4.63;;;;;;;9.03;79.03;99150.53;10224146;28;20050;-65
2021/12/24 09:50:14;;;;;;;7.53;4.90;;;;;;;9.06;78.61;99136.16;10242534;28;20194;-63
2021/12/24 09:55:19;;;;;;;7.05;6.00;;;;;;;9.12;78.35;99133.75;10241835;28;20055;-63
2021/12/24 10:00:21;;;;;;;;;;;;;;;9.17;78.56;99118.25;10219677;28;20051;-63
2021/12/24 10:05:38;;;;;;;6.72;6.03;;;;;;;9.15;78.41;99117.53;10235603;28;19937;-64
2021/12/24 10:10:42;;;;;;;7.68;5.85;;;;;;;9.31;78.23;99110.84;10241110;28;20043;-65
2021/12/24 10:15:51;;;;;;;7.90;5.70;;;;;;;9.33;78.08;99108.84;10238532;28;20058;-63
2021/12/24 10:21:24;;;;;;;7.07;4.93;;;;;;;9.30;77.91;99104.66;10243711;28;20290;-64
2021/12/24 10:26:34;;;;;;;7.10;6.40;;;;;;;9.26;78.60;99107.75;10241483;28;20051;-63
2021/12/24 10:31:53;;;;;;;8.15;5.90;;;;;;;9.29;78.44;99107.47;10225833;28;20054;-63
2021/12/24 10:37:22;;;;;;;9.65;5.50;;;;;;;9.35;77.96;99109.53;10245144;28;20529;-63
2021/12/24 10:42:29;;;;;;;8.25;5.95;;;;;;;9.27;78.03;99112.09;10252187;28;20600;-63
2021/12/24 10:47:33;;;;;;;9.93;5.97;;;;;;;9.19;78.21;99107.50;10250656;28;20042;-63
2021/12/24 10:53:01;;;;;;;7.18;5.28;;;;;;;9.15;78.34;99101.63;10233993;28;20057;-63
2021/12/24 10:58:05;;;;;;;6.80;5.75;;;;;;;9.12;78.45;99107.22;10250244;28;20054;-63
2021/12/24 11:03:17;;;;;;;7.27;4.63;;;;;;;9.13;78.58;99113.38;10231594;28;20085;-63
2021/12/24 11:08:27;;;;;;;8.20;5.30;;;;;;;9.17;79.02;99089.06;10250601;28;20058;-66
2021/12/24 11:13:39;;;;;;;7.05;5.95;;;;;;;9.11;80.09;99094.09;10231617;28;20061;-65
2021/12/24 11:18:45;;;;;;;8.48;6.20;;;;;;;9.11;79.85;99081.66;10250722;28;20567;-65
2021/12/24 11:23:47;;;;;;;9.10;5.68;;;;;;;9.14;79.90;99089.34;10232917;28;20593;-65
2021/12/24 11:28:49;;;;;;;6.95;5.95;;;;;;;9.19;79.59;99092.41;10248061;28;20059;-63
2021/12/24 11:33:52;;;;;;;7.97;4.72;;;;;;;9.27;78.73;99104.94;10249746;28;20054;-63
2021/12/24 11:38:56;;;;;;;7.10;5.82;;;;;;;9.24;78.29;99096.44;10248910;28;20591;-63
2021/12/24 11:44:01;;;;;;;7.97;5.32;;;;;;;9.25;78.22;99079.50;10260618;28;20055;-63
2021/12/24 11:49:03;;;;;;;6.18;4.97;;;;;;;9.26;77.30;99076.72;10270660;28;20059;-62
2021/12/24 11:54:05;;;;;;;10.32;5.85;;;;;;;9.35;78.44;99090.94;10242745;28;20047;-64
2021/12/24 11:59:06;;;;;;;8.52;5.95;;;;;;;9.36;78.51;99082.00;10229599;28;20987;-64
2021/12/24 12:04:20;;;;;;;7.05;5.45;;;;;;;9.51;78.44;99079.72;10250220;28;20229;-64
2021/12/24 12:09:21;;;;;;;8.27;5.95;;;;;;;9.80;77.17;99084.06;10248516;28;20053;-64
2021/12/24 12:14:23;;;;;;;7.25;5.80;;;;;;;10.27;76.03;99070.66;10249280;28;20051;-66
2021/12/24 12:24:57;;;;;;;10.43;6.13;;;;;;;13.05;64.83;99058.00;10247098;28;21055;-64
2021/12/24 12:30:21;;;;;;;5.97;5.03;;;;;;;14.45;59.62;99061.00;10248012;28;20050;-64
2021/12/24 12:35:33;;;;;;;;;;;;;;;13.03;64.17;99057.31;10243106;28;20043;-64
2021/12/24 12:40:35;;;;;;;9.25;5.38;;;;;;;12.07;68.21;99061.41;10231475;28;19932;-66
2021/12/24 12:45:37;;;;;;;8.00;5.88;;;;;;;11.81;69.97;99046.28;10249372;28;20047;-64
2021/12/24 12:50:51;;;;;;;6.22;5.63;;;;;;;11.45;71.52;99039.34;10230213;28;21243;-63
2021/12/24 12:56:19;;;;;;;8.95;6.60;;;;;;;11.19;72.87;99038.50;10247672;28;20493;-65
2021/12/24 13:01:21;;;;;;;6.40;5.72;;;;;;;11.23;72.94;99035.38;10246322;28;20053;-63
2021/12/24 13:06:51;;;;;;;7.45;5.78;;;;;;;11.22;73.04;99027.53;10246488;28;20055;-63
2021/12/24 13:11:55;;;;;;;6.07;5.35;;;;;;;11.21;73.05;99031.19;10245432;28;20057;-63
2021/12/24 13:27:38;;;;;;;8.75;6.05;;;;;;;9.98;78.84;99038.94;10245075;28;20074;-63
2021/12/24 13:32:41;;;;;;;8.55;6.68;;;;;;;9.72;80.52;99047.63;10241546;28;20065;-66
2021/12/24 13:37:46;;;;;;;9.05;6.57;;;;;;;9.64;81.59;99051.00;10243922;28;20522;-64
2021/12/24 13:42:56;;;;;;;6.78;6.07;;;;;;;9.64;81.69;99042.22;10243703;28;20115;-68
2021/12/24 13:48:04;;;;;;;8.77;5.95;;;;;;;9.57;82.49;99057.06;10226445;28;20053;-65
2021/12/24 13:58:30;;;;;;;6.38;5.72;;;;;;;9.27;84.04;99045.72;10241685;28;20133;-63
2021/12/24 14:03:34;;;;;;;8.95;6.55;;;;;;;9.30;84.23;99053.38;10243058;28;20061;-64
2021/12/24 14:08:39;;;;;;;5.65;5.03;;;;;;;9.15;84.95;99051.19;10242581;28;20051;-64
2021/12/24 14:13:51;;;;;;;6.97;5.82;;;;;;;9.15;85.06;99056.47;10220930;23;20085;-64
2021/12/24 14:19:08;;;;;;;6.35;5.72;;;;;;;9.21;84.71;99055.06;10216472;28;20043;-63
2021/12/24 14:24:15;;;;;;;7.78;6.10;;;;;;;9.26;84.41;99054.63;10223118;28;20047;-65
2021/12/24 14:29:31;;;;;;;8.45;6.00;;;;;;;9.17;84.73;99057.19;10213133;28;20543;-63
2021/12/24 14:34:34;;;;;;;6.20;5.30;;;;;;;9.13;84.81;99054.97;10213966;28;20085;-64
2021/12/24 14:39:43;;;;;;;6.38;5.20;;;;;;;9.12;84.68;99058.59;10218318;28;20049;-64
2021/12/24 14:44:51;;;;;;;5.93;5.25;;;;;;;9.12;84.63;99054.13;10214685;28;20050;-64
2021/12/24 14:50:00;;;;;;;8.13;6.00;;;;;;;9.14;84.48;99056.63;10214555;28;20095;-64
2021/12/24 14:55:16;;;;;;;5.60;5.00;;;;;;;9.12;84.27;99054.13;10209241;28;20053;-66
2021/12/24 15:00:21;;;;;;;5.28;4.45;;;;;;;9.14;84.69;99049.53;10212028;28;20040;-63
2021/12/24 15:05:38;;;;;;;5.90;5.25;;;;;;;9.08;84.50;99039.44;10214302;28;20670;-65
2021/12/24 15:10:40;;;;;;;5.28;4.78;;;;;;;8.95;84.79;99033.63;10215136;28;20526;-64
2021/12/24 15:15:48;;;;;;;5.68;4.85;;;;;;;8.90;85.04;99038.53;10218074;28;20077;-65
2021/12/24 15:20:51;;;;;;;5.85;5.20;;;;;;;8.94;85.35;99037.25;10233034;28;20081;-65
2021/12/24 15:25:52;;;;;;;5.30;4.72;;;;;;;8.94;85.20;99029.31;10250624;28;20063;-63
2021/12/24 15:30:54;;;;;;;5.88;4.80;;;;;;;8.92;85.23;99045.38;10220474;28;20171;-63
2021/12/24 15:35:56;;;;;;;7.40;5.85;;;;;;;8.84;85.37;99050.53;10220145;28;20047;-65
2021/12/24 15:40:58;;;;;;;5.90;5.30;;;;;;;8.85;85.67;99046.91;10213918;28;20063;-64
2021/12/24 15:46:01;;;;;;;5.28;4.63;;;;;;;8.80;85.96;99046.50;10216718;28;21095;-65
2021/12/24 15:51:07;;;;;;;5.47;4.68;;;;;;;8.82;85.84;99039.25;10228149;28;20060;-64
2021/12/24 15:56:09;;;;;;;4.93;4.20;;;;;;;8.82;85.65;99042.72;10213219;28;20528;-63
2021/12/24 16:01:11;;;;;;;4.95;4.45;;;;;;;8.79;86.23;99055.44;10216466;28;20070;-65
2021/12/24 16:06:12;;;;;;;4.25;3.85;;;;;;;8.81;86.04;99046.38;10228703;28;20066;-65
2021/12/24 16:11:14;;;;;;;14.23;11.35;;;;;;;8.81;85.86;99042.84;10223814;28;20074;-65
2021/12/24 16:16:22;;;;;;;4.78;4.32;;;;;;;8.80;86.25;99057.13;10219761;28;20055;-65
2021/12/24 16:21:23;;;;;;;4.20;3.80;;;;;;;8.84;86.06;99055.84;10220601;28;20055;-64
2021/12/24 16:26:25;;;;;;;4.13;3.72;;;;;;;8.82;86.19;99044.53;10216251;28;20065;-65
2021/12/24 16:31:26;;;;;;;5.03;4.53;;;;;;;8.87;86.41;99038.81;10217214;28;20051;-65
2021/12/24 16:36:28;;;;;;;3.40;3.10;;;;;;;8.88;86.24;99029.88;10216659;28;20414;-64
2021/12/24 16:41:29;;;;;;;5.50;5.00;;;;;;;8.92;86.07;99025.97;10215234;28;20059;-65
2021/12/24 16:46:30;;;;;;;7.45;5.55;;;;;;;8.91;86.11;99029.59;10216673;28;20432;-66
2021/12/24 16:51:34;;;;;;;5.47;4.97;;;;;;;8.87;86.47;99034.31;10217838;28;20502;-66
2021/12/24 16:56:36;;;;;;;6.03;4.28;;;;;;;8.91;86.25;99034.91;10218784;28;20059;-64
2021/12/24 17:01:37;;;;;;;4.30;3.90;;;;;;;8.82;86.74;99013.53;10217281;28;20527;-63
2021/12/24 17:06:39;;;;;;;4.65;4.25;;;;;;;8.89;86.46;99020.91;10248137;28;20053;-65
2021/12/24 17:11:40;;;;;;;4.55;4.15;;;;;;;8.94;86.24;99018.69;10249247;28;20403;-65
2021/12/24 17:16:42;;;;;;;5.20;4.70;;;;;;;8.95;86.19;99020.38;10219238;28;20294;-65
2021/12/24 17:21:45;;;;;;;5.85;5.05;;;;;;;8.96;86.19;99032.63;10256833;28;20053;-65
2021/12/24 17:26:46;;;;;;;5.18;4.65;;;;;;;8.87;86.52;99033.50;10253130;28;20125;-63
2021/12/24 17:31:51;;;;;;;6.60;6.10;;;;;;;8.99;86.35;99029.69;10273006;28;20074;-65
2021/12/24 17:36:53;;;;;;;;;;;;;;;8.90;86.91;99025.25;10245759;28;20244;-65
2021/12/24 17:41:54;;;;;;;5.60;5.05;;;;;;;8.90;86.57;99023.44;10248422;28;20364;-64
2021/12/24 17:46:55;;;;;;;5.47;4.97;;;;;;;9.06;86.07;99025.50;10250997;28;20460;-65
2021/12/24 17:51:57;;;;;;;6.03;5.47;;;;;;;9.06;86.01;99011.41;10249427;28;20053;-64
2021/12/24 17:56:59;;;;;;;7.18;6.10;;;;;;;9.07;85.61;99007.75;10251439;28;20447;-64
2021/12/24 18:02:00;;;;;;;6.13;5.13;;;;;;;9.04;85.75;98995.63;10249624;28;20039;-64
2021/12/24 18:07:02;;;;;;;6.00;5.40;;;;;;;9.08;85.73;98993.50;10247210;28;20050;-64
2021/12/24 18:12:05;;;;;;;6.90;5.43;;;;;;;8.99;85.99;98984.56;10250059;28;20134;-64
2021/12/24 18:17:07;;;;;;;6.05;5.45;;;;;;;9.02;85.86;98992.25;10249448;28;20054;-64
2021/12/24 18:22:09;;;;;;;5.75;4.72;;;;;;;8.94;85.96;99003.59;10248475;28;20137;-64
2021/12/24 18:27:13;;;;;;;7.13;6.50;;;;;;;8.89;86.48;99000.53;10250372;28;20054;-65
2021/12/24 18:32:14;;;;;;;7.70;6.35;;;;;;;8.83;87.30;98993.97;10239127;28;20397;-65
2021/12/24 18:37:18;;;;;;;6.63;6.03;;;;;;;8.82;87.36;98994.94;10251534;28;20051;-65
2021/12/24 18:42:20;;;;;;;6.22;5.60;;;;;;;8.75;87.30;98996.53;10249950;28;20513;-65
2021/12/24 18:47:21;;;;;;;6.00;5.40;;;;;;;8.74;87.86;99002.81;10245329;28;20426;-64
2021/12/24 18:52:23;;;;;;;7.80;6.43;;;;;;;8.76;88.10;98992.88;10250269;28;20059;-64
2021/12/24 18:57:24;;;;;;;17.92;15.88;;;;;;;8.71;88.58;98988.97;10247652;28;20055;-64
2021/12/24 19:02:26;;;;;;;5.78;5.28;;;;;;;8.67;88.74;98986.59;10256626;28;20085;-64
2021/12/24 19:07:27;;;;;;;9.45;6.60;;;;;;;8.65;89.01;98998.34;10256340;28;20414;-64
2021/12/24 19:12:29;;;;;;;6.50;5.90;;;;;;;8.63;89.26;98982.59;10263989;28;20043;-64
2021/12/24 19:17:30;;;;;;;7.95;6.78;;;;;;;8.54;90.45;98986.09;10251032;28;20055;-64
2021/12/24 19:22:32;;;;;;;6.30;5.70;;;;;;;8.47;91.08;98988.44;10258636;28;20054;-64
2021/12/24 19:27:34;;;;;;;5.65;5.13;;;;;;;8.50;91.12;98995.31;10255932;28;20055;-64
2021/12/24 19:32:36;;;;;;;6.85;6.25;;;;;;;8.36;92.32;98985.06;10258322;28;20059;-64
2021/12/24 19:37:38;;;;;;;6.60;6.00;;;;;;;8.34;92.83;98997.66;10256872;28;20090;-64
2021/12/24 19:42:39;;;;;;;7.20;6.60;;;;;;;8.29;92.90;98996.25;10257859;28;20126;-65
2021/12/24 19:47:40;;;;;;;7.75;6.90;;;;;;;8.28;93.70;98996.38;10254473;28;20046;-65
2021/12/24 19:52:42;;;;;;;7.55;6.75;;;;;;;8.28;94.48;98991.91;10254829;28;20050;-65
2021/12/24 19:57:45;;;;;;;7.30;6.60;;;;;;;8.37;93.78;98992.88;10258233;28;20190;-64
2021/12/24 20:02:47;;;;;;;7.97;7.18;;;;;;;8.39;93.47;99003.34;10256012;28;20328;-64
2021/12/24 20:07:49;;;;;;;8.68;7.88;;;;;;;8.35;93.23;98997.50;10251430;28;20130;-64
2021/12/24 20:12:50;;;;;;;7.55;6.75;;;;;;;8.41;92.20;98999.59;10272412;23;20051;-61
2021/12/24 20:17:53;;;;;;;7.20;6.50;;;;;;;8.51;91.25;98991.66;10250377;28;20074;-61
2021/12/24 20:22:58;;;;;;;6.53;5.93;;;;;;;8.55;91.08;98986.91;10245717;28;20049;-60
2021/12/24 20:28:02;;;;;;;7.75;6.40;;;;;;;8.47;91.69;98992.94;10252889;28;20126;-60
2021/12/24 20:33:03;;;;;;;7.38;6.57;;;;;;;8.44;91.62;98991.38;10257040;28;20102;-60
2021/12/24 20:38:06;;;;;;;7.25;5.95;;;;;;;8.35;92.23;98992.19;10247028;28;20090;-59
2021/12/24 20:43:08;;;;;;;7.93;6.88;;;;;;;8.41;92.19;98986.34;10238805;28;20110;-59
2021/12/24 20:48:09;;;;;;;8.70;7.45;;;;;;;8.37;92.59;98976.97;10247634;28;20065;-59
2021/12/24 20:53:12;;;;;;;7.07;6.38;;;;;;;8.28;92.87;98969.88;10247025;28;20134;-61
2021/12/24 20:58:13;;;;;;;7.13;6.43;;;;;;;8.35;92.83;98981.59;10245267;28;20484;-59
2021/12/24 21:03:15;;;;;;;7.22;6.53;;;;;;;8.43;92.74;98997.63;10245776;28;20195;-59
2021/12/24 21:08:16;;;;;;;7.07;6.38;;;;;;;8.39;93.04;98988.31;10251641;28;20071;-60
2021/12/24 21:13:21;;;;;;;8.95;7.75;;;;;;;8.53;92.29;98984.41;10249143;28;20053;-60
2021/12/24 21:18:23;;;;;;;8.57;7.72;;;;;;;8.53;92.72;98984.41;10250359;28;20144;-60
2021/12/24 21:23:32;;;;;;;9.38;8.43;;;;;;;8.57;92.76;98982.28;10243942;28;20129;-62
2021/12/24 21:28:33;;;;;;;9.25;8.35;;;;;;;8.56;92.68;98978.00;10247479;28;20063;-59
2021/12/24 21:33:35;;;;;;;10.80;9.13;;;;;;;8.54;92.95;98985.22;10247825;28;20109;-59
2021/12/24 21:38:37;;;;;;;9.75;8.75;;;;;;;8.55;92.70;98971.81;10245969;28;20051;-59
2021/12/24 21:43:40;;;;;;;11.02;10.02;;;;;;;8.51;92.87;98974.91;10248318;28;20047;-60
2021/12/24 21:48:42;;;;;;;10.57;9.48;;;;;;;8.57;92.74;98983.16;10246329;28;20057;-60
2021/12/24 21:53:43;;;;;;;9.77;8.85;;;;;;;8.59;93.00;98990.97;10247110;28;20631;-60
2021/12/24 21:58:47;;;;;;;9.73;8.80;;;;;;;8.62;92.62;98994.16;10239538;28;20597;-60
2021/12/24 22:03:53;;;;;;;11.27;10.13;;;;;;;8.69;91.93;98994.41;10242378;28;20047;-60
2021/12/24 22:08:57;;;;;;;9.05;8.18;;;;;;;8.74;91.59;98997.50;10246741;28;20589;-61
2021/12/24 22:14:06;;;;;;;9.98;8.60;;;;;;;8.70;91.14;98995.28;10246978;28;20046;-61
2021/12/24 22:19:09;;;;;;;9.85;8.85;;;;;;;8.76;91.52;99011.44;10242769;28;20059;-61
2021/12/24 22:24:12;;;;;;;11.23;9.98;;;;;;;8.82;91.13;99002.91;10225664;28;20429;-60
2021/12/24 22:29:20;;;;;;;;;;;;;;;8.84;91.02;99003.63;10221886;28;20146;-61
2021/12/24 22:34:22;;;;;;;9.63;8.73;;;;;;;8.76;90.69;98989.41;10235456;28;20005;-60
2021/12/24 22:39:23;;;;;;;11.02;9.30;;;;;;;8.79;90.36;98979.31;10234808;28;20062;-59
2021/12/24 22:44:25;;;;;;;10.13;9.10;;;;;;;8.90;89.89;98982.78;10242645;28;20160;-60
2021/12/24 22:49:26;;;;;;;9.30;8.50;;;;;;;8.98;89.38;98989.06;10244749;28;20055;-59
2021/12/24 22:54:35;;;;;;;9.68;8.77;;;;;;;8.94;89.19;98985.00;10246041;28;20054;-60
2021/12/24 22:59:37;;;;;;;9.73;8.90;;;;;;;8.85;89.55;98973.44;10235265;28;20137;-61
2021/12/24 23:04:38;;;;;;;12.73;11.25;;;;;;;8.82;90.41;98979.03;10235420;28;20070;-61
2021/12/24 23:09:40;;;;;;;12.55;10.38;;;;;;;8.72;91.10;98962.31;10237756;28;20696;-61
2021/12/24 23:14:41;;;;;;;12.05;10.80;;;;;;;8.67;91.65;98972.50;10249962;28;20042;-61
2021/12/24 23:19:42;;;;;;;13.13;11.73;;;;;;;8.64;92.11;98980.75;10245574;28;20089;-61
2021/12/24 23:24:44;;;;;;;12.52;11.27;;;;;;;8.54;92.50;98964.00;10243546;28;20057;-60
2021/12/24 23:29:45;;;;;;;12.43;11.18;;;;;;;8.53;92.90;98979.09;10242506;28;20606;-62
2021/12/24 23:34:46;;;;;;;13.63;12.00;;;;;;;8.51;93.34;98990.81;10243689;28;20043;-60
2021/12/24 23:39:48;;;;;;;12.45;11.15;;;;;;;8.51;93.25;98988.16;10241532;28;20156;-60
2021/12/24 23:44:56;;;;;;;13.60;12.20;;;;;;;8.49;93.51;98983.84;10243593;28;20126;-61
2021/12/24 23:49:58;;;;;;;13.98;12.48;;;;;;;8.59;92.91;98983.00;10249686;28;20051;-60
2021/12/24 23:54:59;;;;;;;12.73;11.43;;;;;;;8.46;92.44;98962.91;10249056;28;20050;-61
